createdAt,value
2019-01-25T00:00:24.564Z,97260.59
2019-01-25T00:02:26.158Z,97267.48
2019-01-25T00:04:27.768Z,97264.08
2019-01-25T00:06:29.405Z,97263.27
2019-01-25T00:08:31.003Z,97263.98
2019-01-25T00:10:32.598Z,97265.97
2019-01-25T00:12:34.195Z,97268.42
2019-01-25T00:14:35.835Z,97271.24
2019-01-25T00:16:37.420Z,97262.22
2019-01-25T00:18:39.041Z,97270.24
2019-01-25T00:20:40.679Z,97247.07
2019-01-25T00:22:42.277Z,97268.67
2019-01-25T00:24:43.874Z,97266.86
2019-01-25T00:26:45.488Z,97267.50
2019-01-25T00:28:47.156Z,97264.36
2019-01-25T00:30:48.733Z,97262.91
2019-01-25T00:32:50.370Z,97264.00
2019-01-25T00:34:51.974Z,97264.19
2019-01-25T00:36:53.588Z,97268.20
2019-01-25T00:38:55.219Z,97264.92
2019-01-25T00:40:56.827Z,97269.81
2019-01-25T00:42:58.488Z,97273.22
2019-01-25T00:45:00.118Z,97272.87
2019-01-25T00:47:01.730Z,97273.81
2019-01-25T00:49:03.370Z,97278.74
2019-01-25T00:51:04.991Z,97275.09
2019-01-25T00:53:06.613Z,97278.19
2019-01-25T00:55:08.224Z,97285.50
2019-01-25T00:57:09.823Z,97285.11
2019-01-25T00:59:11.417Z,97281.06
2019-01-25T01:01:13.052Z,97286.75
2019-01-25T01:03:14.664Z,97283.02
2019-01-25T01:05:16.265Z,97283.44
2019-01-25T01:07:17.865Z,97286.75
2019-01-25T01:09:19.458Z,97291.12
2019-01-25T01:11:21.053Z,97287.05
2019-01-25T01:13:22.673Z,97289.70
2019-01-25T01:15:24.269Z,97291.99
2019-01-25T01:17:25.927Z,97296.86
2019-01-25T01:19:27.535Z,97290.30
2019-01-25T01:21:29.713Z,97294.00
2019-01-25T01:23:31.354Z,97296.81
2019-01-25T01:25:32.950Z,97298.34
2019-01-25T01:27:34.535Z,97298.61
2019-01-25T01:29:36.129Z,97294.20
2019-01-25T01:31:37.725Z,97294.43
2019-01-25T01:33:39.376Z,97296.38
2019-01-25T01:35:40.979Z,97303.19
2019-01-25T01:37:42.573Z,97303.78
2019-01-25T01:39:44.157Z,97304.54
2019-01-25T01:41:45.755Z,97308.88
2019-01-25T01:43:47.368Z,97310.92
2019-01-25T01:45:48.989Z,97307.70
2019-01-25T01:47:50.601Z,97314.59
2019-01-25T01:49:52.243Z,97307.42
2019-01-25T01:51:53.838Z,97311.80
2019-01-25T01:53:55.433Z,97305.98
2019-01-25T01:55:57.067Z,97308.16
2019-01-25T01:57:58.661Z,97305.34
2019-01-25T02:00:00.272Z,97304.56
2019-01-25T02:02:01.883Z,97298.69
2019-01-25T02:04:03.467Z,97291.56
2019-01-25T02:06:05.075Z,97290.80
2019-01-25T02:08:06.712Z,97290.01
2019-01-25T02:10:08.314Z,97296.06
2019-01-25T02:12:09.909Z,97300.84
2019-01-25T02:14:11.551Z,97300.98
2019-01-25T02:16:13.165Z,97295.55
2019-01-25T02:18:14.774Z,97292.22
2019-01-25T02:20:16.384Z,97288.07
2019-01-25T02:22:17.983Z,97290.30
2019-01-25T02:24:19.592Z,97287.84
2019-01-25T02:26:21.188Z,97296.70
2019-01-25T02:28:22.808Z,97299.78
2019-01-25T02:30:24.404Z,97303.66
2019-01-25T02:32:26.029Z,97301.95
2019-01-25T02:34:27.617Z,97296.97
2019-01-25T02:36:29.219Z,97300.02
2019-01-25T02:38:30.822Z,97303.68
2019-01-25T02:40:38.710Z,97304.25
2019-01-25T02:42:34.137Z,97313.61
2019-01-25T02:44:35.737Z,97307.66
2019-01-25T02:46:37.329Z,97297.80
2019-01-25T02:48:38.926Z,97295.00
2019-01-25T02:50:40.579Z,97300.45
2019-01-25T02:52:42.188Z,97302.87
2019-01-25T02:54:43.796Z,97303.89
2019-01-25T02:56:45.411Z,97261.52
2019-01-25T02:58:47.012Z,97300.76
2019-01-25T03:00:48.662Z,97303.63
2019-01-25T03:02:50.247Z,97304.20
2019-01-25T03:04:51.837Z,97303.11
2019-01-25T03:06:53.465Z,97305.81
2019-01-25T03:08:55.061Z,97299.09
2019-01-25T03:10:56.667Z,97300.66
2019-01-25T03:12:58.314Z,97302.86
2019-01-25T03:14:59.914Z,97301.58
2019-01-25T03:17:01.516Z,97300.28
2019-01-25T03:19:03.119Z,97302.70
2019-01-25T03:21:05.112Z,97302.06
2019-01-25T03:23:06.371Z,97305.89
2019-01-25T03:25:07.975Z,97298.78
2019-01-25T03:27:09.559Z,97294.67
2019-01-25T03:29:11.261Z,97296.33
2019-01-25T03:31:12.868Z,97305.05
2019-01-25T03:33:14.513Z,97298.95
2019-01-25T03:35:16.123Z,97298.42
2019-01-25T03:37:17.721Z,97289.59
2019-01-25T03:39:19.400Z,97299.02
2019-01-25T03:41:21.001Z,97295.41
2019-01-25T03:43:22.598Z,97301.88
2019-01-25T03:45:24.255Z,97302.55
2019-01-25T03:47:25.958Z,97301.52
2019-01-25T03:49:27.554Z,97302.53
2019-01-25T03:51:29.150Z,97304.81
2019-01-25T03:53:30.769Z,97298.59
2019-01-25T03:55:32.414Z,97308.45
2019-01-25T03:57:34.024Z,97307.27
2019-01-25T03:59:35.607Z,97300.53
2019-01-25T04:01:37.206Z,97311.70
2019-01-25T04:03:38.834Z,97309.64
2019-01-25T04:05:40.433Z,97310.84
2019-01-25T04:07:42.064Z,97314.25
2019-01-25T04:09:43.658Z,97314.67
2019-01-25T04:11:45.268Z,97311.19
2019-01-25T04:13:46.882Z,97314.08
2019-01-25T04:15:48.525Z,97309.69
2019-01-25T04:17:50.122Z,97317.30
2019-01-25T04:19:51.776Z,97319.31
2019-01-25T04:21:53.369Z,97316.23
2019-01-25T04:23:54.962Z,97313.16
2019-01-25T04:25:56.588Z,97313.50
2019-01-25T04:27:58.181Z,97305.36
2019-01-25T04:29:59.781Z,97307.90
2019-01-25T04:32:01.420Z,97312.88
2019-01-25T04:34:03.013Z,97314.48
2019-01-25T04:36:04.610Z,97315.27
2019-01-25T04:38:06.334Z,97311.88
2019-01-25T04:40:07.930Z,97312.30
2019-01-25T04:42:09.529Z,97316.19
2019-01-25T04:44:11.125Z,97312.37
2019-01-25T04:46:12.719Z,97317.87
2019-01-25T04:48:14.351Z,97320.44
2019-01-25T04:50:15.946Z,97315.34
2019-01-25T04:52:17.541Z,97317.45
2019-01-25T04:54:19.164Z,97320.86
2019-01-25T04:56:20.766Z,97317.96
2019-01-25T04:58:22.378Z,97314.99
2019-01-25T05:00:24.017Z,97312.92
2019-01-25T05:02:25.651Z,97317.62
2019-01-25T05:04:27.304Z,97323.15
2019-01-25T05:06:28.907Z,97313.97
2019-01-25T05:08:30.510Z,97321.31
2019-01-25T05:10:32.133Z,97320.63
2019-01-25T05:12:33.775Z,97318.66
2019-01-25T05:14:35.371Z,97318.48
2019-01-25T05:16:36.974Z,97316.97
2019-01-25T05:18:38.579Z,97321.83
2019-01-25T05:20:40.217Z,97326.53
2019-01-25T05:22:41.813Z,97317.75
2019-01-25T05:24:43.435Z,97288.20
2019-01-25T05:26:45.061Z,97325.84
2019-01-25T05:28:46.653Z,97325.37
2019-01-25T05:30:48.247Z,97322.77
2019-01-25T05:32:49.886Z,97329.59
2019-01-25T05:34:51.496Z,97330.83
2019-01-25T05:36:53.097Z,97330.33
2019-01-25T05:38:54.698Z,97326.02
2019-01-25T05:40:56.312Z,97331.05
2019-01-25T05:42:57.911Z,97334.37
2019-01-25T05:44:59.527Z,97330.52
2019-01-25T05:47:01.147Z,97327.75
2019-01-25T05:49:02.804Z,97331.83
2019-01-25T05:51:04.401Z,97326.95
2019-01-25T05:53:05.997Z,97327.71
2019-01-25T05:55:07.642Z,97326.84
2019-01-25T05:57:09.248Z,97334.42
2019-01-25T05:59:10.860Z,97338.16
2019-01-25T06:01:12.476Z,97341.06
2019-01-25T06:03:14.088Z,97336.37
2019-01-25T06:05:16.287Z,97343.05
2019-01-25T06:07:17.944Z,97337.98
2019-01-25T06:09:19.541Z,97340.47
2019-01-25T06:11:21.151Z,97339.61
2019-01-25T06:13:22.796Z,97339.19
2019-01-25T06:15:24.394Z,97341.25
2019-01-25T06:17:25.980Z,97345.52
2019-01-25T06:19:27.578Z,97347.63
2019-01-25T06:21:29.169Z,97347.22
2019-01-25T06:23:30.765Z,97353.16
2019-01-25T06:25:32.399Z,97348.95
2019-01-25T06:27:34.011Z,97349.39
2019-01-25T06:29:35.641Z,97350.23
2019-01-25T06:31:37.235Z,97354.94
2019-01-25T06:33:38.830Z,97353.30
2019-01-25T06:35:40.418Z,97355.45
2019-01-25T06:37:42.063Z,97364.27
2019-01-25T06:39:43.676Z,97358.26
2019-01-25T06:41:45.274Z,97365.58
2019-01-25T06:43:46.884Z,97366.91
2019-01-25T06:45:49.895Z,97366.14
2019-01-25T06:47:50.186Z,97373.44
2019-01-25T06:49:51.824Z,97377.83
2019-01-25T06:51:53.422Z,97375.73
2019-01-25T06:53:55.032Z,97411.48
2019-01-25T06:55:56.668Z,97380.91
2019-01-25T06:58:05.383Z,97378.41
2019-01-25T07:00:05.759Z,97383.52
2019-01-25T07:02:07.372Z,97385.66
2019-01-25T07:04:08.957Z,97388.19
2019-01-25T07:06:10.557Z,97385.99
2019-01-25T07:08:12.178Z,97382.60
2019-01-25T07:10:13.774Z,97396.64
2019-01-25T07:12:15.375Z,97397.56
2019-01-25T07:14:16.965Z,97396.34
2019-01-25T07:16:18.547Z,97398.50
2019-01-25T07:18:20.152Z,97401.11
2019-01-25T07:20:21.759Z,97409.20
2019-01-25T07:22:23.404Z,97406.72
2019-01-25T07:24:25.001Z,97413.06
2019-01-25T07:26:26.607Z,97420.55
2019-01-25T07:28:28.247Z,97413.32
2019-01-25T07:30:29.870Z,97409.39
2019-01-25T07:32:31.494Z,97420.27
2019-01-25T07:34:33.170Z,97431.25
2019-01-25T07:36:34.813Z,97431.83
2019-01-25T07:38:36.423Z,97432.34
2019-01-25T07:40:38.052Z,97434.98
2019-01-25T07:42:39.697Z,97430.48
2019-01-25T07:44:41.328Z,97437.14
2019-01-25T07:46:42.998Z,97439.36
2019-01-25T07:48:44.601Z,97434.30
2019-01-25T07:50:46.288Z,97443.43
2019-01-25T07:52:47.860Z,97442.77
2019-01-25T07:54:49.471Z,97411.73
2019-01-25T07:56:51.080Z,97446.25
2019-01-25T07:58:52.714Z,97446.38
2019-01-25T08:00:54.328Z,97447.25
2019-01-25T08:02:55.965Z,97450.81
2019-01-25T08:04:57.588Z,97446.77
2019-01-25T08:06:59.208Z,97447.90
2019-01-25T08:09:00.888Z,97450.84
2019-01-25T08:11:02.509Z,97448.59
2019-01-25T08:13:04.198Z,97446.52
2019-01-25T08:15:05.838Z,97448.71
2019-01-25T08:17:07.456Z,97455.91
2019-01-25T08:19:09.101Z,97458.88
2019-01-25T08:21:10.756Z,97464.38
2019-01-25T08:23:12.346Z,97470.17
2019-01-25T08:25:13.964Z,97471.01
2019-01-25T08:27:15.617Z,97461.25
2019-01-25T08:29:17.290Z,97460.28
2019-01-25T08:31:18.885Z,97460.88
2019-01-25T08:33:20.541Z,97470.35
2019-01-25T08:35:22.152Z,97467.67
2019-01-25T08:37:23.808Z,97467.75
2019-01-25T08:39:25.432Z,97470.68
2019-01-25T08:41:27.067Z,97474.77
2019-01-25T08:43:28.704Z,97465.33
2019-01-25T08:45:30.368Z,97471.52
2019-01-25T08:47:31.972Z,97468.78
2019-01-25T08:49:33.615Z,97463.52
2019-01-25T08:51:35.554Z,97467.23
2019-01-25T08:53:36.957Z,97464.19
2019-01-25T08:55:38.580Z,97460.72
2019-01-25T08:57:40.172Z,97466.08
2019-01-25T08:59:44.516Z,97463.89
2019-01-25T09:01:43.496Z,97461.25
2019-01-25T09:03:45.094Z,97460.40
2019-01-25T09:05:46.710Z,97459.45
2019-01-25T09:07:48.322Z,97457.67
2019-01-25T09:09:49.912Z,97450.39
2019-01-25T09:11:51.499Z,97460.08
2019-01-25T09:13:53.133Z,97454.02
2019-01-25T09:15:54.747Z,97463.72
2019-01-25T09:17:56.395Z,97461.44
2019-01-25T09:19:57.994Z,97459.16
2019-01-25T09:21:59.603Z,97464.26
2019-01-25T09:24:01.251Z,97463.67
2019-01-25T09:26:02.845Z,97470.88
2019-01-25T09:28:05.052Z,97470.73
2019-01-25T09:30:06.650Z,97470.22
2019-01-25T09:32:08.291Z,97468.05
2019-01-25T09:34:09.891Z,97473.44
2019-01-25T09:36:11.500Z,97471.25
2019-01-25T09:38:13.096Z,97473.67
2019-01-25T09:40:14.702Z,97471.88
2019-01-25T09:42:16.311Z,97467.03
2019-01-25T09:44:17.924Z,97474.70
2019-01-25T09:46:19.560Z,97470.42
2019-01-25T09:48:21.168Z,97466.73
2019-01-25T09:50:22.768Z,97470.20
2019-01-25T09:52:24.362Z,97464.73
2019-01-25T09:54:25.966Z,97459.30
2019-01-25T09:56:27.558Z,97466.33
2019-01-25T09:58:29.181Z,97469.44
2019-01-25T10:00:30.763Z,97465.72
2019-01-25T10:02:32.386Z,97464.26
2019-01-25T10:04:33.996Z,97463.66
2019-01-25T10:06:35.585Z,97463.81
2019-01-25T10:08:37.177Z,97470.39
2019-01-25T10:10:38.799Z,97463.73
2019-01-25T10:12:43.497Z,97464.30
2019-01-25T10:14:42.099Z,97460.30
2019-01-25T10:16:43.689Z,97455.25
2019-01-25T10:18:45.300Z,97454.52
2019-01-25T10:20:46.898Z,97452.02
2019-01-25T10:22:48.517Z,97458.48
2019-01-25T10:24:50.118Z,97457.27
2019-01-25T10:26:51.714Z,97460.75
2019-01-25T10:28:53.349Z,97455.75
2019-01-25T10:30:54.935Z,97459.56
2019-01-25T10:32:56.539Z,97458.30
2019-01-25T10:34:58.138Z,97463.33
2019-01-25T10:36:59.735Z,97457.37
2019-01-25T10:39:01.377Z,97460.28
2019-01-25T10:41:02.989Z,97457.14
2019-01-25T10:43:04.592Z,97454.02
2019-01-25T10:45:06.239Z,97450.02
2019-01-25T10:47:07.834Z,97448.00
2019-01-25T10:49:09.415Z,97450.78
2019-01-25T10:51:11.033Z,97454.23
2019-01-25T10:53:12.629Z,97448.45
2019-01-25T10:55:14.279Z,97441.45
2019-01-25T10:57:15.863Z,97443.50
2019-01-25T10:59:17.457Z,97443.06
2019-01-25T11:01:19.078Z,97441.26
2019-01-25T11:03:20.661Z,97444.27
2019-01-25T11:05:22.259Z,97439.09
2019-01-25T11:07:23.868Z,97431.45
2019-01-25T11:09:25.506Z,97437.76
2019-01-25T11:11:27.107Z,97448.02
2019-01-25T11:13:28.997Z,97444.25
2019-01-25T11:15:30.664Z,97450.15
2019-01-25T11:17:36.386Z,97451.09
2019-01-25T11:19:33.928Z,97446.98
2019-01-25T11:21:37.494Z,97451.83
2019-01-25T11:23:37.207Z,97443.52
2019-01-25T11:25:38.816Z,97454.28
2019-01-25T11:27:40.538Z,97453.95
2019-01-25T11:29:42.134Z,97454.06
2019-01-25T11:31:43.739Z,97455.54
2019-01-25T11:33:45.361Z,97459.81
2019-01-25T11:35:46.968Z,97463.36
2019-01-25T11:37:48.576Z,97454.52
2019-01-25T11:39:50.188Z,97455.05
2019-01-25T11:41:51.812Z,97451.77
2019-01-25T11:43:53.427Z,97457.81
2019-01-25T11:45:55.055Z,97462.55
2019-01-25T11:47:56.693Z,97460.03
2019-01-25T11:49:58.303Z,97469.38
2019-01-25T11:51:59.946Z,97468.19
2019-01-25T11:54:02.667Z,97469.02
2019-01-25T11:56:04.333Z,97468.19
2019-01-25T11:58:05.940Z,97466.07
2019-01-25T12:00:07.551Z,97464.84
2019-01-25T12:02:09.145Z,97470.23
2019-01-25T12:04:10.739Z,97458.27
2019-01-25T12:06:12.391Z,97462.75
2019-01-25T12:08:13.987Z,97462.11
2019-01-25T12:10:15.595Z,97459.38
2019-01-25T12:12:17.252Z,97456.31
2019-01-25T12:14:18.840Z,97455.66
2019-01-25T12:16:20.490Z,97454.15
2019-01-25T12:18:22.149Z,97455.38
2019-01-25T12:20:23.835Z,97454.81
2019-01-25T12:22:25.439Z,97449.28
2019-01-25T12:24:27.082Z,97449.63
2019-01-25T12:26:28.677Z,97447.05
2019-01-25T12:28:30.270Z,97442.30
2019-01-25T12:30:31.913Z,97435.06
2019-01-25T12:32:33.520Z,97443.66
2019-01-25T12:34:35.123Z,97443.27
2019-01-25T12:36:36.717Z,97445.02
2019-01-25T12:38:38.639Z,97440.75
2019-01-25T12:40:42.414Z,97443.91
2019-01-25T12:42:41.998Z,97441.80
2019-01-25T12:44:43.579Z,97442.75
2019-01-25T12:46:45.218Z,97438.63
2019-01-25T12:48:46.829Z,97427.93
2019-01-25T12:50:49.168Z,97435.89
2019-01-25T12:52:50.156Z,97429.12
2019-01-25T12:54:51.745Z,97428.34
2019-01-25T12:56:53.365Z,97434.38
2019-01-25T12:58:56.058Z,97429.43
2019-01-25T13:00:57.698Z,97428.23
2019-01-25T13:02:59.291Z,97423.64
2019-01-25T13:05:00.945Z,97425.78
2019-01-25T13:07:02.541Z,97428.34
2019-01-25T13:09:04.148Z,97424.63
2019-01-25T13:11:05.756Z,97423.81
2019-01-25T13:13:07.376Z,97423.05
2019-01-25T13:15:09.014Z,97414.95
2019-01-25T13:17:10.624Z,97421.77
2019-01-25T13:19:12.225Z,97420.89
2019-01-25T13:21:13.858Z,97411.53
2019-01-25T13:23:15.462Z,97412.33
2019-01-25T13:25:17.076Z,97409.27
2019-01-25T13:27:18.711Z,97407.93
2019-01-25T13:29:26.081Z,97403.08
2019-01-25T13:31:22.028Z,97402.97
2019-01-25T13:33:23.736Z,97404.08
2019-01-25T13:35:25.339Z,97407.68
2019-01-25T13:37:31.327Z,97385.70
2019-01-25T13:39:28.701Z,97404.76
2019-01-25T13:41:30.298Z,97404.19
2019-01-25T13:43:38.843Z,97407.58
2019-01-25T13:45:33.588Z,97407.14
2019-01-25T13:47:35.214Z,97408.08
2019-01-25T13:49:36.825Z,97425.30
2019-01-25T13:51:38.436Z,97418.32
2019-01-25T13:53:40.047Z,97417.80
2019-01-25T13:55:42.751Z,97414.28
2019-01-25T13:57:43.341Z,97417.15
2019-01-25T13:59:45.025Z,97416.11
2019-01-25T14:01:46.631Z,97422.23
2019-01-25T14:03:48.226Z,97420.62
2019-01-25T14:05:49.880Z,97419.91
2019-01-25T14:07:51.510Z,97428.02
2019-01-25T14:09:53.129Z,97427.55
2019-01-25T14:11:54.780Z,97427.42
2019-01-25T14:13:56.657Z,97427.78
2019-01-25T14:15:58.297Z,97425.13
2019-01-25T14:17:59.899Z,97424.56
2019-01-25T14:20:01.498Z,97425.34
2019-01-25T14:22:03.693Z,97427.77
2019-01-25T14:24:05.354Z,97431.40
2019-01-25T14:26:06.964Z,97439.73
2019-01-25T14:28:08.561Z,97439.58
2019-01-25T14:30:10.204Z,97443.24
2019-01-25T14:32:11.796Z,97423.45
2019-01-25T14:34:13.398Z,97448.86
2019-01-25T14:36:14.997Z,97449.13
2019-01-25T14:38:16.598Z,97448.59
2019-01-25T14:40:18.184Z,97454.91
2019-01-25T14:42:19.793Z,97453.89
2019-01-25T14:44:21.432Z,97450.83
2019-01-25T14:46:23.084Z,97456.77
2019-01-25T14:48:24.706Z,97455.44
2019-01-25T14:50:26.313Z,97448.27
2019-01-25T14:52:27.959Z,97449.05
2019-01-25T14:54:29.630Z,97454.23
2019-01-25T14:56:31.304Z,97455.94
2019-01-25T14:58:32.888Z,97455.73
2019-01-25T15:00:34.485Z,97463.90
2019-01-25T15:02:36.105Z,97465.38
2019-01-25T15:04:37.727Z,97459.62
2019-01-25T15:06:39.342Z,97461.86
2019-01-25T15:08:40.938Z,97459.39
2019-01-25T15:10:42.528Z,97459.19
2019-01-25T15:12:44.118Z,97470.68
2019-01-25T15:14:45.719Z,97484.88
2019-01-25T15:16:47.363Z,97461.58
2019-01-25T15:18:48.978Z,97457.90
2019-01-25T15:20:50.566Z,97458.33
2019-01-25T15:22:52.229Z,97461.02
2019-01-25T15:24:53.848Z,97446.14
2019-01-25T15:26:56.030Z,97457.69
2019-01-25T15:28:57.626Z,97444.96
2019-01-25T15:30:59.499Z,97448.78
2019-01-25T15:33:01.149Z,97443.25
2019-01-25T15:35:02.831Z,97439.34
2019-01-25T15:37:04.564Z,97435.43
2019-01-25T15:39:06.253Z,97427.69
2019-01-25T15:41:07.846Z,97436.48
2019-01-25T15:43:09.456Z,97437.19
2019-01-25T15:45:11.071Z,97440.00
2019-01-25T15:47:12.680Z,97440.24
2019-01-25T15:49:14.287Z,97440.17
2019-01-25T15:51:15.872Z,97448.91
2019-01-25T15:53:17.500Z,97426.91
2019-01-25T15:55:19.114Z,97441.02
2019-01-25T15:57:20.719Z,97445.55
2019-01-25T15:59:22.447Z,97441.69
2019-01-25T16:01:24.136Z,97442.06
2019-01-25T16:03:25.785Z,97430.06
2019-01-25T16:05:27.390Z,97433.86
2019-01-25T16:07:29.000Z,97436.34
2019-01-25T16:09:30.613Z,97440.33
2019-01-25T16:11:32.262Z,97434.83
2019-01-25T16:13:33.848Z,97416.11
2019-01-25T16:15:35.490Z,97439.60
2019-01-25T16:17:37.085Z,97437.95
2019-01-25T16:19:38.690Z,97426.53
2019-01-25T16:21:40.290Z,97424.44
2019-01-25T16:23:41.910Z,97421.98
2019-01-25T16:25:43.505Z,97422.98
2019-01-25T16:27:45.100Z,97425.19
2019-01-25T16:29:46.693Z,97423.56
2019-01-25T16:31:48.362Z,97415.13
2019-01-25T16:33:49.991Z,97424.56
2019-01-25T16:35:51.600Z,97430.54
2019-01-25T16:37:53.202Z,97426.44
2019-01-25T16:39:54.809Z,97418.39
2019-01-25T16:41:56.509Z,97420.22
2019-01-25T16:43:58.120Z,97424.50
2019-01-25T16:45:59.753Z,97427.06
2019-01-25T16:48:01.370Z,97430.08
2019-01-25T16:50:02.980Z,97431.38
2019-01-25T16:52:04.618Z,97428.84
2019-01-25T16:54:06.225Z,97428.04
2019-01-25T16:56:07.832Z,97434.78
2019-01-25T16:58:09.460Z,97432.63
2019-01-25T17:00:11.076Z,97430.45
2019-01-25T17:02:12.684Z,97429.58
2019-01-25T17:04:14.305Z,97431.58
2019-01-25T17:06:15.926Z,97431.97
2019-01-25T17:08:17.572Z,97437.36
2019-01-25T17:10:19.179Z,97438.91
2019-01-25T17:12:20.773Z,97429.87
2019-01-25T17:14:22.380Z,97428.08
2019-01-25T17:16:24.004Z,97423.69
2019-01-25T17:18:25.713Z,97428.76
2019-01-25T17:20:28.234Z,97433.30
2019-01-25T17:22:29.834Z,97424.85
2019-01-25T17:24:31.499Z,97429.09
2019-01-25T17:26:33.111Z,97425.62
2019-01-25T17:28:34.700Z,97420.53
2019-01-25T17:30:36.308Z,97419.73
2019-01-25T17:32:37.919Z,97415.56
2019-01-25T17:34:39.503Z,97417.69
2019-01-25T17:36:41.154Z,97418.55
2019-01-25T17:38:42.761Z,97413.95
2019-01-25T17:40:46.936Z,97416.63
2019-01-25T17:42:46.006Z,97412.50
2019-01-25T17:44:47.602Z,97411.75
2019-01-25T17:46:49.223Z,97408.07
2019-01-25T17:48:50.868Z,97406.87
2019-01-25T17:50:52.461Z,97403.04
2019-01-25T17:52:54.057Z,97397.03
2019-01-25T17:54:55.661Z,97403.50
2019-01-25T17:56:57.254Z,97401.43
2019-01-25T17:58:58.862Z,97407.77
2019-01-25T18:01:00.515Z,97409.53
2019-01-25T18:03:02.125Z,97403.20
2019-01-25T18:05:03.721Z,97401.52
2019-01-25T18:07:05.342Z,97398.98
2019-01-25T18:09:06.980Z,97404.84
2019-01-25T18:11:08.567Z,97411.16
2019-01-25T18:13:10.185Z,97411.56
2019-01-25T18:15:11.781Z,97406.80
2019-01-25T18:17:13.541Z,97408.07
2019-01-25T18:19:15.262Z,97405.79
2019-01-25T18:21:16.919Z,97403.94
2019-01-25T18:23:18.513Z,97405.55
2019-01-25T18:25:20.105Z,97401.05
2019-01-25T18:27:21.720Z,97402.22
2019-01-25T18:29:23.336Z,97400.30
2019-01-25T18:31:24.973Z,97390.64
2019-01-25T18:33:26.587Z,97387.55
2019-01-25T18:35:28.311Z,97388.24
2019-01-25T18:37:29.916Z,97390.80
2019-01-25T18:39:31.514Z,97380.91
2019-01-25T18:41:33.127Z,97385.86
2019-01-25T18:43:34.759Z,97381.81
2019-01-25T18:45:36.360Z,97379.58
2019-01-25T18:47:37.986Z,97376.56
2019-01-25T18:49:39.647Z,97379.80
2019-01-25T18:51:41.248Z,97379.36
2019-01-25T18:53:42.850Z,97368.52
2019-01-25T18:55:44.459Z,97363.18
2019-01-25T18:57:46.057Z,97357.41
2019-01-25T18:59:47.667Z,97358.05
2019-01-25T19:01:49.275Z,97362.50
2019-01-25T19:03:51.697Z,97362.23
2019-01-25T19:05:53.346Z,97357.23
2019-01-25T19:07:54.994Z,97349.05
2019-01-25T19:09:56.590Z,97346.09
2019-01-25T19:11:58.211Z,97343.86
2019-01-25T19:13:59.809Z,97337.12
2019-01-25T19:16:01.392Z,97334.63
2019-01-25T19:18:02.989Z,97316.10
2019-01-25T19:20:04.585Z,97315.75
2019-01-25T19:22:06.666Z,97301.89
2019-01-25T19:24:08.267Z,97317.97
2019-01-25T19:26:09.881Z,97306.45
2019-01-25T19:28:11.506Z,97306.16
2019-01-25T19:30:13.244Z,97304.84
2019-01-25T19:32:15.022Z,97301.75
2019-01-25T19:34:16.653Z,97304.89
2019-01-25T19:36:18.265Z,97296.02
2019-01-25T19:38:19.873Z,97307.58
2019-01-25T19:40:21.460Z,97292.77
2019-01-25T19:42:24.266Z,97300.42
2019-01-25T19:44:24.912Z,97301.59
2019-01-25T19:46:26.598Z,97307.13
2019-01-25T19:48:28.247Z,97304.45
2019-01-25T19:50:29.842Z,97304.97
2019-01-25T19:52:31.438Z,97305.21
2019-01-25T19:54:33.083Z,97272.40
2019-01-25T19:56:34.712Z,97303.31
2019-01-25T19:58:36.295Z,97304.83
2019-01-25T20:00:37.902Z,97308.72
2019-01-25T20:02:39.521Z,97303.74
2019-01-25T20:04:41.125Z,97304.45
2019-01-25T20:06:43.344Z,97302.80
2019-01-25T20:08:45.118Z,97303.95
2019-01-25T20:10:46.736Z,97311.44
2019-01-25T20:12:48.331Z,97313.36
2019-01-25T20:14:49.951Z,97306.25
2019-01-25T20:16:51.560Z,97308.41
2019-01-25T20:18:53.211Z,97302.08
2019-01-25T20:20:54.837Z,97294.44
2019-01-25T20:22:56.452Z,97291.57
2019-01-25T20:24:58.068Z,97290.50
2019-01-25T20:26:59.679Z,97286.36
2019-01-25T20:29:01.293Z,97288.56
2019-01-25T20:31:02.922Z,97285.47
2019-01-25T20:33:05.555Z,97279.41
2019-01-25T20:35:07.152Z,97271.11
2019-01-25T20:37:08.738Z,97277.60
2019-01-25T20:39:10.341Z,97274.72
2019-01-25T20:41:12.076Z,97272.17
2019-01-25T20:43:13.756Z,97273.63
2019-01-25T20:45:15.353Z,97271.83
2019-01-25T20:47:16.944Z,97270.38
2019-01-25T20:49:18.576Z,97268.73
2019-01-25T20:51:20.180Z,97262.95
2019-01-25T20:53:21.806Z,97268.58
2019-01-25T20:55:23.441Z,97261.11
2019-01-25T20:57:25.042Z,97263.13
2019-01-25T20:59:26.658Z,97251.81
2019-01-25T21:01:28.325Z,97249.67
2019-01-25T21:03:29.921Z,97236.15
2019-01-25T21:05:31.540Z,97246.81
2019-01-25T21:07:33.137Z,97250.37
2019-01-25T21:09:34.752Z,97247.92
2019-01-25T21:11:36.346Z,97249.59
2019-01-25T21:13:37.997Z,97237.45
2019-01-25T21:15:39.605Z,97222.46
2019-01-25T21:17:41.204Z,97234.80
2019-01-25T21:19:42.796Z,97239.58
2019-01-25T21:21:44.398Z,97231.19
2019-01-25T21:23:46.002Z,97228.50
2019-01-25T21:25:47.671Z,97227.19
2019-01-25T21:27:49.271Z,97233.04
2019-01-25T21:29:50.871Z,97224.95
2019-01-25T21:31:52.522Z,97220.16
2019-01-25T21:33:54.146Z,97216.06
2019-01-25T21:35:55.748Z,97218.74
2019-01-25T21:37:58.157Z,97204.49
2019-01-25T21:39:59.763Z,97212.58
2019-01-25T21:42:01.348Z,97218.05
2019-01-25T21:44:03.003Z,97221.60
2019-01-25T21:46:04.615Z,97213.83
2019-01-25T21:48:06.219Z,97216.37
2019-01-25T21:50:07.827Z,97215.41
2019-01-25T21:52:09.422Z,97217.60
2019-01-25T21:54:11.008Z,97217.20
2019-01-25T21:56:12.649Z,97211.63
2019-01-25T21:58:14.267Z,97210.86
2019-01-25T22:00:15.855Z,97199.62
2019-01-25T22:02:17.449Z,97200.73
2019-01-25T22:04:19.164Z,97199.23
2019-01-25T22:06:20.923Z,97200.47
2019-01-25T22:08:22.461Z,97197.28
2019-01-25T22:10:24.057Z,97200.92
2019-01-25T22:12:25.700Z,97196.00
2019-01-25T22:14:27.417Z,97198.47
2019-01-25T22:16:29.067Z,97193.55
2019-01-25T22:18:30.730Z,97195.39
2019-01-25T22:20:32.339Z,97189.63
2019-01-25T22:22:33.952Z,97193.57
2019-01-25T22:24:35.540Z,97234.11
2019-01-25T22:26:37.157Z,97183.70
2019-01-25T22:28:38.755Z,97190.56
2019-01-25T22:30:40.354Z,97184.58
2019-01-25T22:32:42.033Z,97177.19
2019-01-25T22:34:44.909Z,97170.98
2019-01-25T22:36:45.309Z,97166.44
2019-01-25T22:38:46.939Z,97168.43
2019-01-25T22:40:48.581Z,97160.70
2019-01-25T22:42:50.177Z,97166.41
2019-01-25T22:44:51.783Z,97162.66
2019-01-25T22:46:53.382Z,97162.49
2019-01-25T22:48:54.987Z,97165.87
2019-01-25T22:50:56.589Z,97155.90
2019-01-25T22:52:58.241Z,97153.84
2019-01-25T22:54:59.896Z,97154.22
2019-01-25T22:57:01.520Z,97163.63
2019-01-25T22:59:03.219Z,97158.05
2019-01-25T23:01:05.841Z,97162.05
2019-01-25T23:03:07.424Z,97151.01
2019-01-25T23:05:09.032Z,97155.39
2019-01-25T23:07:10.647Z,97153.27
2019-01-25T23:09:12.231Z,97151.64
2019-01-25T23:11:13.829Z,97151.79
2019-01-25T23:13:15.435Z,97153.39
2019-01-25T23:15:17.089Z,97147.83
2019-01-25T23:17:18.682Z,97139.56
2019-01-25T23:19:20.285Z,97141.55
2019-01-25T23:21:21.935Z,97143.45
2019-01-25T23:23:23.533Z,97142.48
2019-01-25T23:25:25.144Z,97135.69
2019-01-25T23:27:26.760Z,97140.98
2019-01-25T23:29:28.395Z,97135.94
2019-01-25T23:31:29.981Z,97133.99
2019-01-25T23:33:31.611Z,97128.26
2019-01-25T23:35:33.211Z,97121.97
2019-01-25T23:37:34.801Z,97115.49
2019-01-25T23:39:36.416Z,97114.77
2019-01-25T23:41:38.048Z,97109.73
2019-01-25T23:43:39.636Z,97114.10
2019-01-25T23:45:41.229Z,97106.51
2019-01-25T23:47:42.825Z,97067.32